Latest Weather Observations for Ulladulla

IDN60901

Issued at 8:34 pm EDT Sunday 29 March 2015 (issued every 10 minutes, with the page automatically refreshed every 10 minutes)

About weather observations | Map of Canberra area stations | Latest observations for Canberra area | Other Formats
Station Details ID: 069138 Name: ULLADULLA AWS Lat: -35.36 Lon: 150.48 Height: 35.7 m
Data from the previous 72 hours. | See also: Recent months at Ulladulla
Date/Time
EDT
Tmp

°C
App
Tmp
°C
Dew
Point
°C
Rel
Hum
%
Delta-T

°C
Wind Press
QNH
hPa
Press
MSL
hPa
Rain
since
9 am
mm
Dir
 
Spd
km/h
Gust
km/h
Spd
kts
Gust
kts
29/08:30pm 17.5 18.6 13.6 78 2.2 CALM 0 0 0 0 1022.5 1022.4 0.0
29/08:00pm 18.4 19.9 14.7 79 2.1 CALM 0 0 0 0 1022.0 1021.9 0.0
29/07:30pm 19.3 20.9 14.8 75 2.6 CALM 0 0 0 0 1021.6 1021.5 0.0
29/07:00pm 20.3 21.5 14.9 71 3.2 N 2 4 1 2 1021.1 1021.0 0.0
29/06:30pm 21.1 22.0 16.1 73 3.0 N 6 9 3 5 1020.7 1020.6 0.0
29/05:30pm 21.4 20.9 10.9 51 5.8 ENE 4 6 2 3 1020.6 1020.5 0.0
29/05:00pm 21.4 21.0 11.1 52 5.7 E 4 7 2 4 1020.5 1020.4 0.0
29/04:30pm 21.7 20.3 8.9 44 6.8 SSE 6 9 3 5 1020.6 1020.5 0.0
29/04:00pm 22.2 21.2 11.0 49 6.2 SSE 7 11 4 6 1020.7 1020.6 0.0
29/03:30pm 23.4 23.2 13.0 52 6.0 SSE 6 9 3 5 1020.8 1020.7 0.0
29/03:00pm 23.1 23.2 14.4 58 5.1 E 7 11 4 6 1020.8 1020.7 0.0
29/02:30pm 22.8 22.3 13.8 57 5.2 ENE 9 13 5 7 1021.0 1020.9 0.0
29/02:00pm 22.7 22.5 13.7 56 5.2 ENE 7 13 4 7 1021.1 1021.0 0.0
29/01:30pm 22.7 22.2 13.7 56 5.2 ENE 9 13 5 7 1021.4 1021.3 0.0
29/01:00pm 22.7 22.7 13.7 56 5.2 NE 6 9 3 5 1021.7 1021.6 0.0
29/12:30pm 21.7 22.0 14.6 64 4.2 NE 6 9 3 5 1021.9 1021.8 0.0
29/11:30am 19.5 18.2 11.3 59 4.5 NNE 9 11 5 6 1022.3 1022.2 0.0
29/11:00am 19.7 19.4 13.4 67 3.6 NNE 7 9 4 5 1022.4 1022.3 0.0
29/10:30am 19.3 19.0 12.6 65 3.8 NNE 6 7 3 4 1022.7 1022.6 0.0
29/10:00am 18.8 18.9 12.8 68 3.4 N 4 11 2 6 1022.6 1022.5 0.0
29/09:30am 17.7 17.3 12.4 71 2.9 NNW 6 9 3 5 1022.7 1022.6 0.0
29/09:00am 17.2 16.3 12.7 75 2.5 NNW 9 15 5 8 1022.3 1022.2 0.0
29/08:30am 16.3 15.1 12.7 79 2.0 N 11 17 6 9 1022.0 1021.9 0.0
29/07:00am 17.0 14.9 12.3 74 2.6 N 15 22 8 12 1021.6 1021.5 0.0
29/06:30am 16.2 14.7 11.8 75 2.4 NNW 11 17 6 9 1021.5 1021.4 0.0
29/05:30am 14.9 14.0 11.3 79 1.9 NNW 7 11 4 6 1021.4 1021.3 0.0
29/05:00am 14.5 13.7 10.9 79 1.9 NNW 6 7 3 4 1021.4 1021.3 0.0
29/04:30am 14.3 13.4 10.7 79 1.9 NNW 6 7 3 4 1021.2 1021.1 0.0
29/04:00am 14.4 13.6 11.0 80 1.8 NNW 6 9 3 5 1021.4 1021.3 0.0
29/03:30am 14.1 13.3 11.1 82 1.6 NW 6 7 3 4 1021.5 1021.4 0.0
29/03:00am 14.3 13.7 10.3 77 2.1 NW 4 6 2 3 1021.8 1021.7 0.0
29/02:30am 14.9 14.4 10.9 77 2.1 NW 4 6 2 3 1022.2 1022.1 0.0
29/02:00am 15.1 14.3 10.9 76 2.2 NW 6 7 3 4 1022.5 1022.4 0.0
29/01:30am 15.4 14.6 11.2 76 2.2 NNW 6 7 3 4 1022.6 1022.5 0.0
29/01:00am 15.8 15.2 11.6 76 2.3 NW 6 7 3 4 1023.0 1022.9 0.0
29/12:30am 15.8 15.2 11.6 76 2.3 NW 6 9 3 5 1023.1 1023.0 0.0
29/12:00am 15.9 15.1 11.7 76 2.3 NW 7 9 4 5 1023.2 1023.1 0.0
 
Date/Time
EDT
Tmp

°C
App
Tmp
°C
Dew
Point
°C
Rel
Hum
%
Delta-T

°C
Wind Press
QNH
hPa
Press
MSL
hPa
Rain
since
9 am
mm
Dir
 
Spd
km/h
Gust
km/h
Spd
kts
Gust
kts
28/11:30pm 15.7 15.0 11.5 76 2.3 NW 6 9 3 5 1023.4 1023.3 0.0
28/11:00pm 15.9 15.2 11.5 75 2.4 NW 6 7 3 4 1023.6 1023.5 0.0
28/10:30pm 16.4 15.8 11.6 73 2.6 NW 6 9 3 5 1023.8 1023.7 0.0
28/10:00pm 16.4 15.6 11.6 73 2.6 NW 7 11 4 6 1023.8 1023.7 0.0
28/09:30pm 16.2 15.5 12.0 76 2.3 NW 7 9 4 5 1023.5 1023.4 0.0
28/09:00pm 15.9 15.3 11.7 76 2.3 E 6 9 3 5 1023.4 1023.3 0.0
28/08:30pm 16.6 17.2 12.0 74 2.5 CALM 0 0 0 0 1023.2 1023.1 0.0
28/08:00pm 17.1 16.9 11.8 71 2.9 ESE 4 6 2 3 1022.9 1022.8 0.0
28/07:30pm 17.2 17.3 11.5 69 3.1 ENE 2 7 1 4 1022.7 1022.6 0.0
28/07:00pm 17.9 18.1 11.9 68 3.3 E 2 6 1 3 1022.4 1022.3 0.0
28/06:30pm 18.3 17.7 11.6 65 3.7 ESE 6 9 3 5 1022.3 1022.2 0.0
28/06:00pm 18.8 18.6 11.9 64 3.8 ESE 4 9 2 5 1022.2 1022.1 0.0
28/05:30pm 19.2 18.3 11.3 60 4.3 SE 7 11 4 6 1022.3 1022.2 0.0
28/05:00pm 19.5 18.1 11.0 58 4.6 SE 9 15 5 8 1022.2 1022.1 0.0
28/04:30pm 20.1 18.6 10.5 54 5.2 SSE 9 15 5 8 1022.2 1022.1 0.0
28/04:00pm 20.4 18.7 9.9 51 5.6 SSE 9 17 5 9 1022.3 1022.2 0.0
28/03:30pm 20.6 18.7 10.4 52 5.5 SSE 11 19 6 10 1022.4 1022.3 0.0
28/03:00pm 20.6 18.1 9.8 50 5.8 SSE 13 19 7 10 1022.4 1022.3 0.0
28/02:30pm 20.7 18.2 9.6 49 5.9 SSE 13 20 7 11 1022.6 1022.5 0.0
28/02:00pm 20.6 18.6 8.6 46 6.3 SSE 9 13 5 7 1022.9 1022.8 0.0
28/01:30pm 20.4 18.6 8.1 45 6.4 SSE 7 13 4 7 1023.1 1023.0 0.0
28/01:00pm 20.1 18.3 8.1 46 6.2 SSE 7 11 4 6 1023.4 1023.3 0.0
28/12:30pm 20.1 18.1 7.1 43 6.6 S 7 11 4 6 1023.7 1023.6 0.0
28/12:00pm 19.9 17.6 7.6 45 6.3 S 9 13 5 7 1023.8 1023.7 0.0
28/11:30am 19.7 17.4 7.4 45 6.3 S 9 15 5 8 1023.8 1023.7 0.0
28/11:00am 19.5 16.8 7.3 45 6.2 S 11 17 6 9 1023.7 1023.6 0.0
28/10:30am 19.6 17.5 8.3 48 5.9 SSW 9 15 5 8 1023.7 1023.6 0.0
28/10:00am 18.8 16.0 6.9 46 6.0 SSW 11 17 6 9 1023.6 1023.5 0.0
28/09:30am 18.3 15.2 5.5 43 6.2 SW 11 17 6 9 1023.5 1023.4 0.0
28/09:00am 17.7 15.6 6.6 48 5.5 WSW 7 11 4 6 1023.3 1023.2 0.0
28/08:30am 16.7 14.7 7.1 53 4.8 W 7 11 4 6 1022.9 1022.8 0.0
28/08:00am 15.1 13.1 6.9 58 4.0 WSW 7 11 4 6 1022.4 1022.3 0.0
28/07:30am 12.9 10.9 6.3 64 3.1 WSW 6 9 3 5 1022.1 1022.0 0.0
28/07:00am 12.9 10.7 6.0 63 3.2 WSW 7 11 4 6 1021.8 1021.7 0.0
28/06:30am 13.1 10.5 6.0 62 3.4 W 9 13 5 7 1021.4 1021.3 0.0
28/06:00am 13.4 10.8 6.0 61 3.5 WSW 9 13 5 7 1021.1 1021.0 0.0
28/05:30am 13.7 11.0 5.8 59 3.7 WSW 9 13 5 7 1020.7 1020.6 0.0
28/05:00am 13.9 10.9 6.0 59 3.8 WSW 11 15 6 8 1020.3 1020.2 0.0
28/04:30am 14.0 11.5 6.4 60 3.7 WSW 9 17 5 9 1020.2 1020.1 0.0
28/04:00am 14.2 11.9 5.8 57 4.0 W 7 11 4 6 1020.2 1020.1 0.0
28/03:30am 14.2 11.5 5.8 57 4.0 WSW 9 13 5 7 1020.2 1020.1 0.0
28/03:00am 14.5 11.8 5.8 56 4.1 W 9 13 5 7 1020.3 1020.2 0.0
28/02:30am 15.0 12.3 5.8 54 4.4 W 9 13 5 7 1020.5 1020.4 0.0
28/02:00am 15.3 12.6 5.8 53 4.5 W 9 15 5 8 1020.4 1020.3 0.0
28/01:30am 15.8 13.4 5.4 50 5.0 W 7 11 4 6 1020.4 1020.3 0.0
28/01:00am 16.1 13.7 5.4 49 5.1 W 7 13 4 7 1020.3 1020.2 0.0
28/12:30am 16.7 13.9 5.3 47 5.5 W 9 15 5 8 1020.3 1020.2 0.0
28/12:00am 16.8 14.1 5.7 48 5.4 W 9 19 5 10 1020.2 1020.1 0.0
 
Date/Time
EDT
Tmp

°C
App
Tmp
°C
Dew
Point
°C
Rel
Hum
%
Delta-T

°C
Wind Press
QNH
hPa
Press
MSL
hPa
Rain
since
9 am
mm
Dir
 
Spd
km/h
Gust
km/h
Spd
kts
Gust
kts
27/11:30pm 16.6 13.8 5.3 47 5.4 W 9 15 5 8 1020.0 1019.9 0.0
27/11:00pm 16.9 13.8 5.5 47 5.5 W 11 17 6 9 1019.8 1019.7 0.0
27/10:30pm 16.6 14.0 5.9 49 5.2 W 9 15 5 8 1019.6 1019.5 0.0
27/10:00pm 17.0 14.4 5.9 48 5.4 W 9 13 5 7 1019.4 1019.3 0.0
27/09:30pm 17.5 15.4 6.7 49 5.4 WNW 7 13 4 7 1019.1 1019.0 0.0
27/09:00pm 16.9 15.3 7.8 55 4.6 WNW 6 7 3 4 1018.7 1018.6 0.0
27/08:30pm 17.5 15.2 7.5 52 5.0 WSW 9 13 5 7 1018.4 1018.3 0.0
27/08:00pm 18.1 16.5 8.7 54 4.9 WSW 7 11 4 6 1018.0 1017.9 0.0
27/07:30pm 18.7 17.1 8.9 53 5.1 WSW 7 11 4 6 1017.4 1017.3 0.0
27/07:00pm 19.9 18.7 7.9 46 6.2 S 4 6 2 3 1016.9 1016.8 0.0
27/06:30pm 21.2 19.9 9.1 46 6.4 SSE 6 7 3 4 1016.4 1016.3 0.0
27/06:00pm 21.8 20.4 9.0 44 6.8 SE 6 7 3 4 1015.9 1015.8 0.0
27/05:30pm 22.7 21.5 9.5 43 7.1 ESE 6 9 3 5 1015.7 1015.6 0.0
27/05:00pm 23.0 21.5 9.0 41 7.5 SE 7 13 4 7 1015.3 1015.2 0.0
27/04:30pm 23.2 19.9 6.5 34 8.6 SSE 13 22 7 12 1015.2 1015.1 0.0
27/04:00pm 25.1 21.5 4.8 27 10.2 WSW 13 24 7 13 1015.3 1015.2 0.0
27/03:30pm 24.3 21.1 5.1 29 9.7 NW 11 24 6 13 1015.5 1015.4 0.0
27/03:00pm 24.3 21.4 6.6 32 9.2 WNW 11 20 6 11 1015.8 1015.7 0.0
27/02:30pm 23.3 19.5 5.7 32 8.9 NW 15 28 8 15 1016.0 1015.9 0.0
27/02:00pm 23.2 19.8 6.1 33 8.7 WNW 13 32 7 17 1016.6 1016.5 0.0
27/01:30pm 22.2 18.0 5.6 34 8.3 NW 17 24 9 13 1016.9 1016.8 0.0
27/01:00pm 21.9 18.1 5.8 35 8.1 WNW 15 26 8 14 1017.6 1017.5 0.0
27/12:30pm 22.0 17.9 6.3 36 8.0 W 17 30 9 16 1018.2 1018.1 0.0
27/12:00pm 21.3 17.8 5.6 36 7.8 W 13 24 7 13 1018.6 1018.5 0.0
27/11:30am 20.6 17.1 5.4 37 7.5 WNW 13 28 7 15 1018.6 1018.5 0.0
27/11:00am 20.1 16.7 5.7 39 7.1 W 13 22 7 12 1018.9 1018.8 0.0
27/10:30am 19.3 15.3 5.0 39 6.9 WNW 15 26 8 14 1018.9 1018.8 0.0
27/10:00am 18.1 14.0 4.3 40 6.5 WSW 15 28 8 15 1019.0 1018.9 0.0
27/09:30am 17.7 14.2 5.3 44 6.0 WSW 13 26 7 14 1019.0 1018.9 0.0
27/09:00am 17.1 13.3 3.8 41 6.2 W 13 26 7 14 1018.9 1018.8 0.0
27/08:30am 16.1 13.0 3.5 43 5.8 W 9 20 5 11 1018.8 1018.7 0.0
27/08:00am 15.4 12.6 3.2 44 5.5 WSW 7 17 4 9 1018.4 1018.3 0.0
27/07:30am 14.1 10.8 2.7 46 5.1 WSW 9 20 5 11 1018.1 1018.0 0.0
27/07:00am 13.7 10.4 2.3 46 5.0 WSW 9 17 5 9 1018.1 1018.0 0.0
27/06:30am 12.8 10.3 1.8 47 4.7 SSW 4 9 2 5 1017.8 1017.7 0.0
27/06:00am 13.3 10.8 1.3 44 5.1 W 4 7 2 4 1017.6 1017.5 0.0
27/05:30am 13.9 10.9 0.9 41 5.5 SW 6 13 3 7 1017.5 1017.4 0.0
27/05:00am 14.7 11.7 0.5 38 6.0 WNW 6 17 3 9 1017.5 1017.4 0.0
27/04:30am 14.7 11.1 0.9 39 5.9 WNW 9 28 5 15 1017.6 1017.5 0.0
27/04:00am 14.4 11.4 0.6 39 5.9 WSW 6 9 3 5 1018.0 1017.9 0.0
27/03:30am 14.6 11.0 0.5 38 6.0 WSW 9 17 5 9 1018.2 1018.1 0.0
27/03:00am 14.7 10.7 0.2 37 6.1 W 11 22 6 12 1018.4 1018.3 0.0
27/02:30am 14.4 10.8 0.3 38 6.0 W 9 19 5 10 1018.6 1018.5 0.0
27/02:00am 14.8 11.5 0.3 37 6.1 WNW 7 13 4 7 1018.9 1018.8 0.0
27/01:30am 15.3 11.5 -0.4 34 6.6 WNW 9 15 5 8 1018.8 1018.7 0.0
27/01:00am 15.2 12.0 -0.5 34 6.6 W 6 17 3 9 1019.3 1019.2 0.0
27/12:30am 16.1 11.6 -0.6 32 7.0 W 13 26 7 14 1019.3 1019.2 0.0
27/12:00am 16.6 11.6 -1.0 30 7.4 W 15 28 8 15 1019.2 1019.1 0.0
 
Date/Time
EDT
Tmp

°C
App
Tmp
°C
Dew
Point
°C
Rel
Hum
%
Delta-T

°C
Wind Press
QNH
hPa
Press
MSL
hPa
Rain
since
9 am
mm
Dir
 
Spd
km/h
Gust
km/h
Spd
kts
Gust
kts
26/11:30pm 16.7 11.4 -0.9 30 7.4 W 17 33 9 18 1019.0 1018.9 0.0
26/11:00pm 16.9 11.6 -0.8 30 7.5 W 17 30 9 16 1018.8 1018.7 0.0
26/10:30pm 17.0 11.7 -0.7 30 7.5 W 17 28 9 15 1018.9 1018.8 0.0
26/10:00pm 17.1 12.2 -0.6 30 7.5 W 15 28 8 15 1018.9 1018.8 0.0
26/09:30pm 16.9 12.8 -0.3 31 7.4 W 11 19 6 10 1018.7 1018.6 0.0
26/09:00pm 18.2 12.5 -0.6 28 8.1 W 19 30 10 16 1018.3 1018.2 0.0

Latest Capital City Observations: Canberra | Sydney | Melbourne | Brisbane | Adelaide | Perth | Hobart | Darwin

Other Formats:

Comma delimited format used in spreadsheet applications
http://www.bom.gov.au/fwo/IDN60903/IDN60903.94938.axf

JavaScript Object Notation format (JSON) in row-major order
http://www.bom.gov.au/fwo/IDN60903/IDN60903.94938.json